Time;durP1;ratioP1;P1;durP2;ratioP2;P2;SDS_P1;SDS_P2;PMS_P1;PMS_P2;Temp;Humidity;BMP_temperature;BMP_pressure;BME280_temperature;BME280_humidity;BME280_pressure;Samples;Min_cycle;Max_cycle;Signal;HPM_P1;HPM_P2
2021/01/19 00:01:28;;;;;;;14.77;5.70;;;;;;;;;;5006974;28;20050;-61
2021/01/19 00:03:54;;;;;;;11.50;4.88;;;;;;;;;;4985105;28;20165;-62
2021/01/19 00:06:21;;;;;;;13.88;5.07;;;;;;;;;;5005349;28;20066;-62
2021/01/19 00:08:47;;;;;;;11.20;5.38;;;;;;;;;;4984450;28;20070;-61
2021/01/19 00:11:14;;;;;;;13.95;5.13;;;;;;;;;;5003800;28;20049;-61
2021/01/19 00:13:40;;;;;;;16.02;5.53;;;;;;;;;;4985560;28;20116;-61
2021/01/19 00:16:06;;;;;;;10.63;4.10;;;;;;;;;;4989507;28;20062;-61
2021/01/19 00:18:32;;;;;;;10.77;4.20;;;;;;;;;;4986056;28;20042;-61
2021/01/19 00:20:59;;;;;;;18.58;4.10;;;;;;;;;;4989116;28;20104;-61
2021/01/19 00:23:26;;;;;;;10.98;3.58;;;;;;;;;;4989283;28;20042;-61
2021/01/19 00:25:53;;;;;;;16.85;3.63;;;;;;;;;;4988103;28;20116;-61
2021/01/19 00:28:19;;;;;;;9.25;4.00;;;;;;;;;;4989670;28;20034;-61
2021/01/19 00:30:50;;;;;;;21.75;4.22;;;;;;;;;;4984338;28;20041;-61
2021/01/19 00:33:16;;;;;;;14.07;3.55;;;;;;;;;;4987644;28;20022;-62
2021/01/19 00:35:42;;;;;;;14.63;3.83;;;;;;;;;;4985293;28;20066;-62
2021/01/19 00:38:09;;;;;;;16.55;3.45;;;;;;;;;;4989699;28;20039;-62
2021/01/19 00:40:37;;;;;;;11.77;2.90;;;;;;;;;;4985370;28;20053;-62
2021/01/19 00:43:04;;;;;;;11.27;3.03;;;;;;;;;;4989192;28;20034;-61
2021/01/19 00:45:30;;;;;;;8.52;2.25;;;;;;;;;;4984946;28;20030;-62
2021/01/19 00:47:56;;;;;;;12.90;3.17;;;;;;;;;;4989249;28;20042;-62
2021/01/19 00:50:22;;;;;;;8.50;2.60;;;;;;;;;;4985320;28;20145;-62
2021/01/19 00:52:48;;;;;;;14.23;2.58;;;;;;;;;;4987494;28;20038;-61
2021/01/19 00:55:14;;;;;;;6.82;2.28;;;;;;;;;;4986227;28;20048;-61
2021/01/19 00:57:44;;;;;;;8.55;1.90;;;;;;;;;;5005908;28;20051;-61
2021/01/19 01:00:15;;;;;;;8.68;2.05;;;;;;;;;;4990804;28;20149;-61
2021/01/19 01:02:41;;;;;;;8.50;2.17;;;;;;;;;;4987773;28;20045;-62
2021/01/19 01:05:08;;;;;;;6.38;1.92;;;;;;;;;;5002570;28;20034;-62
2021/01/19 01:07:35;;;;;;;10.48;2.38;;;;;;;;;;4987914;28;20030;-61
2021/01/19 01:10:03;;;;;;;9.02;2.17;;;;;;;;;;4988454;28;20053;-61
2021/01/19 01:12:29;;;;;;;14.15;2.13;;;;;;;;;;4985163;28;20057;-62
2021/01/19 01:14:56;;;;;;;8.15;2.03;;;;;;;;;;5005112;28;20049;-61
2021/01/19 01:17:22;;;;;;;8.85;2.20;;;;;;;;;;4985562;28;20049;-61
2021/01/19 01:19:51;;;;;;;8.57;2.05;;;;;;;;;;5006238;28;20034;-62
2021/01/19 01:22:17;;;;;;;7.53;1.70;;;;;;;;;;4984150;28;20038;-62
2021/01/19 01:24:43;;;;;;;9.65;2.00;;;;;;;;;;5005160;28;20045;-61
2021/01/19 01:27:10;;;;;;;5.00;1.52;;;;;;;;;;5001727;28;20033;-62
2021/01/19 01:29:41;;;;;;;8.52;1.60;;;;;;;;;;5004556;28;20046;-62
2021/01/19 01:32:08;;;;;;;10.25;1.88;;;;;;;;;;4985642;28;20052;-62
2021/01/19 01:34:34;;;;;;;9.60;1.58;;;;;;;;;;5003621;28;20050;-61
2021/01/19 01:37:00;;;;;;;8.05;1.88;;;;;;;;;;5001307;28;20058;-61
2021/01/19 01:39:26;;;;;;;6.13;1.52;;;;;;;;;;5004788;28;20034;-61
2021/01/19 01:41:52;;;;;;;11.23;2.47;;;;;;;;;;5001634;28;20046;-61
2021/01/19 01:44:18;;;;;;;6.75;1.83;;;;;;;;;;5006048;28;20038;-61
2021/01/19 01:46:44;;;;;;;5.60;1.75;;;;;;;;;;4985662;28;20056;-61
2021/01/19 01:49:13;;;;;;;9.98;2.25;;;;;;;;;;4988010;28;20034;-62
2021/01/19 01:51:39;;;;;;;9.63;1.85;;;;;;;;;;5004490;28;20052;-61
2021/01/19 01:54:05;;;;;;;9.50;1.50;;;;;;;;;;5001667;28;20045;-62
2021/01/19 01:56:31;;;;;;;6.22;1.42;;;;;;;;;;4985176;28;20044;-63
2021/01/19 01:59:00;;;;;;;9.75;1.98;;;;;;;;;;4983930;28;20030;-62
2021/01/19 02:01:26;;;;;;;9.07;1.98;;;;;;;;;;5003539;28;20049;-62
2021/01/19 02:03:56;;;;;;;8.63;1.60;;;;;;;;;;4998535;28;20040;-61
2021/01/19 02:06:23;;;;;;;17.48;1.80;;;;;;;;;;5002666;28;20030;-61
2021/01/19 02:08:53;;;;;;;10.00;1.80;;;;;;;;;;4982383;28;20046;-62
2021/01/19 02:11:27;;;;;;;5.80;1.58;;;;;;;;;;4987232;28;20042;-62
2021/01/19 02:14:05;;;;;;;10.70;2.10;;;;;;;;;;4984776;28;20042;-61
2021/01/19 02:16:34;;;;;;;4.13;1.53;;;;;;;;;;4986521;28;20042;-61
2021/01/19 02:19:12;;;;;;;8.40;1.98;;;;;;;;;;4984131;28;20288;-61
2021/01/19 02:21:54;;;;;;;11.40;2.03;;;;;;;;;;4987951;28;20038;-61
2021/01/19 02:24:27;;;;;;;6.53;1.73;;;;;;;;;;4985284;28;20053;-62
2021/01/19 02:27:11;;;;;;;9.02;1.58;;;;;;;;;;4999304;28;20045;-62
2021/01/19 02:29:55;;;;;;;5.93;1.42;;;;;;;;;;5003957;28;20046;-61
2021/01/19 02:32:28;;;;;;;8.32;2.08;;;;;;;;;;4985847;28;20030;-61
2021/01/19 02:34:58;;;;;;;7.40;1.67;;;;;;;;;;4980700;28;20057;-61
2021/01/19 02:37:27;;;;;;;5.97;1.30;;;;;;;;;;4987731;28;20062;-61
2021/01/19 02:39:55;;;;;;;7.90;1.70;;;;;;;;;;4981651;28;20034;-61
2021/01/19 02:42:23;;;;;;;4.57;1.33;;;;;;;;;;4987583;28;20055;-61
2021/01/19 02:44:50;;;;;;;5.72;1.52;;;;;;;;;;4998996;28;20078;-61
2021/01/19 02:47:16;;;;;;;6.82;1.90;;;;;;;;;;5000955;28;20034;-61
2021/01/19 02:49:45;;;;;;;5.75;1.92;;;;;;;;;;4982380;28;20054;-62
2021/01/19 02:52:12;;;;;;;6.35;1.48;;;;;;;;;;5001335;28;20053;-61
2021/01/19 02:54:38;;;;;;;6.05;1.30;;;;;;;;;;4984837;28;20140;-61
2021/01/19 02:57:19;;;;;;;5.95;1.75;;;;;;;;;;4989384;28;20038;-61
2021/01/19 02:59:49;;;;;;;9.70;1.70;;;;;;;;;;4998225;28;20048;-62
2021/01/19 03:02:20;;;;;;;6.93;1.60;;;;;;;;;;5005807;28;20034;-61
2021/01/19 03:04:48;;;;;;;12.40;1.92;;;;;;;;;;4987131;28;20038;-61
2021/01/19 03:07:16;;;;;;;6.70;1.58;;;;;;;;;;4968454;28;20046;-61
2021/01/19 03:09:48;;;;;;;8.50;1.50;;;;;;;;;;4949917;28;20049;-61
2021/01/19 03:12:14;;;;;;;10.57;1.95;;;;;;;;;;4964371;28;20047;-61
2021/01/19 03:14:41;;;;;;;11.70;2.10;;;;;;;;;;4986931;28;20065;-61
2021/01/19 03:17:07;;;;;;;10.80;1.95;;;;;;;;;;4964208;28;20042;-61
2021/01/19 03:19:36;;;;;;;12.40;2.30;;;;;;;;;;4967607;28;20043;-61
2021/01/19 03:22:04;;;;;;;7.85;1.98;;;;;;;;;;4985496;28;20037;-62
2021/01/19 03:24:30;;;;;;;7.25;1.85;;;;;;;;;;4990453;28;20049;-61
2021/01/19 03:26:56;;;;;;;5.47;1.83;;;;;;;;;;4971037;28;20031;-61
2021/01/19 03:29:26;;;;;;;6.85;1.60;;;;;;;;;;4951058;28;20071;-62
2021/01/19 03:31:52;;;;;;;5.95;1.83;;;;;;;;;;4957201;28;20059;-62
2021/01/19 03:34:18;;;;;;;7.60;1.88;;;;;;;;;;4971348;28;20054;-62
2021/01/19 03:36:44;;;;;;;7.85;2.20;;;;;;;;;;4966164;28;20046;-60
2021/01/19 03:39:12;;;;;;;8.32;1.90;;;;;;;;;;4969707;28;20049;-61
2021/01/19 03:41:38;;;;;;;5.68;1.70;;;;;;;;;;4969243;28;20050;-61
2021/01/19 03:44:08;;;;;;;10.55;2.08;;;;;;;;;;4971051;28;20051;-61
2021/01/19 03:46:34;;;;;;;7.20;1.50;;;;;;;;;;4967111;28;20035;-61
2021/01/19 03:49:01;;;;;;;9.55;1.77;;;;;;;;;;4970700;28;20066;-61
2021/01/19 03:51:27;;;;;;;12.95;2.42;;;;;;;;;;4969299;28;20070;-61
2021/01/19 03:53:53;;;;;;;7.93;1.70;;;;;;;;;;4968134;28;20089;-61
2021/01/19 03:56:21;;;;;;;5.15;1.75;;;;;;;;;;4975840;28;20050;-61
2021/01/19 03:58:47;;;;;;;7.85;1.98;;;;;;;;;;4967492;28;20056;-61
2021/01/19 04:01:13;;;;;;;18.45;2.92;;;;;;;;;;4970375;28;20035;-61
2021/01/19 04:03:39;;;;;;;13.80;2.60;;;;;;;;;;4966298;28;20046;-61
2021/01/19 04:06:06;;;;;;;8.48;1.70;;;;;;;;;;5002582;28;20030;-61
2021/01/19 04:08:32;;;;;;;8.95;2.22;;;;;;;;;;5000643;28;20034;-61
2021/01/19 04:11:01;;;;;;;8.35;2.65;;;;;;;;;;4987876;28;20027;-60
2021/01/19 04:13:29;;;;;;;;;;;;;;;;;;5002926;28;20123;-61
2021/01/19 04:15:56;;;;;;;8.73;2.50;;;;;;;;;;4987793;28;19969;-61
2021/01/19 04:18:22;;;;;;;5.63;2.25;;;;;;;;;;4985457;28;20291;-61
2021/01/19 04:20:50;;;;;;;9.23;2.42;;;;;;;;;;4989561;28;20042;-61
2021/01/19 04:23:16;;;;;;;5.85;2.25;;;;;;;;;;5000670;28;20050;-61
2021/01/19 04:25:42;;;;;;;12.18;2.80;;;;;;;;;;4990081;28;20034;-61
2021/01/19 04:28:09;;;;;;;7.97;2.50;;;;;;;;;;5002953;28;20038;-61
2021/01/19 04:30:35;;;;;;;10.23;2.28;;;;;;;;;;5005456;28;20042;-61
2021/01/19 04:33:03;;;;;;;13.63;2.90;;;;;;;;;;4988917;28;20032;-61
2021/01/19 04:35:29;;;;;;;5.13;1.50;;;;;;;;;;5000347;28;20042;-61
2021/01/19 04:37:55;;;;;;;8.02;2.20;;;;;;;;;;5006337;28;20093;-61
2021/01/19 04:40:22;;;;;;;10.48;2.55;;;;;;;;;;4983898;28;20149;-61
2021/01/19 04:42:48;;;;;;;8.70;2.33;;;;;;;;;;4988099;28;20050;-62
2021/01/19 04:45:15;;;;;;;5.18;2.10;;;;;;;;;;4984713;28;20050;-62
2021/01/19 04:47:41;;;;;;;8.75;2.30;;;;;;;;;;4988717;28;20045;-62
2021/01/19 04:50:09;;;;;;;7.32;2.42;;;;;;;;;;4984883;28;20042;-62
2021/01/19 04:52:35;;;;;;;6.45;2.67;;;;;;;;;;4989556;28;20066;-61
2021/01/19 04:55:06;;;;;;;6.50;1.92;;;;;;;;;;5002373;28;20119;-61
2021/01/19 04:57:33;;;;;;;6.15;1.83;;;;;;;;;;5005985;28;20053;-61
2021/01/19 05:00:07;;;;;;;4.93;2.00;;;;;;;;;;5000012;28;20038;-61
2021/01/19 05:02:46;;;;;;;6.65;2.33;;;;;;;;;;5005607;28;20041;-61
2021/01/19 05:05:12;;;;;;;;;;;;;;;;;;4984462;28;20035;-61
2021/01/19 05:07:49;;;;;;;6.90;2.10;;;;;;;;;;4987411;28;19918;-61
2021/01/19 05:10:15;;;;;;;4.47;1.98;;;;;;;;;;4981999;28;20050;-61
2021/01/19 05:12:42;;;;;;;5.25;1.92;;;;;;;;;;4988260;28;20050;-61
2021/01/19 05:15:08;;;;;;;5.40;1.73;;;;;;;;;;4984565;28;20078;-60
2021/01/19 05:17:35;;;;;;;5.00;1.77;;;;;;;;;;4989074;28;20161;-60
2021/01/19 05:20:01;;;;;;;7.18;2.22;;;;;;;;;;4987514;28;20046;-60
2021/01/19 05:22:27;;;;;;;6.25;1.63;;;;;;;;;;4987245;28;20127;-61
2021/01/19 05:24:54;;;;;;;8.23;2.50;;;;;;;;;;4995167;28;20038;-61
2021/01/19 05:27:20;;;;;;;3.67;1.45;;;;;;;;;;4985233;28;20053;-61
2021/01/19 05:29:46;;;;;;;6.63;1.70;;;;;;;;;;4989096;28;20120;-61
2021/01/19 05:32:14;;;;;;;4.53;1.67;;;;;;;;;;4983852;28;20069;-61
2021/01/19 05:34:40;;;;;;;5.85;1.65;;;;;;;;;;4987476;28;20046;-61
2021/01/19 05:37:06;;;;;;;9.23;1.67;;;;;;;;;;4985138;28;20045;-61
2021/01/19 05:39:33;;;;;;;6.13;1.83;;;;;;;;;;4988000;28;20038;-61
2021/01/19 05:41:59;;;;;;;3.20;1.58;;;;;;;;;;4983769;28;20038;-61
2021/01/19 05:44:26;;;;;;;5.15;1.58;;;;;;;;;;4988939;28;20066;-61
2021/01/19 05:46:53;;;;;;;5.43;1.90;;;;;;;;;;5000948;28;20057;-61
2021/01/19 05:49:20;;;;;;;3.28;1.25;;;;;;;;;;4988133;28;20044;-61
2021/01/19 05:51:47;;;;;;;4.22;1.73;;;;;;;;;;4982524;28;20042;-61
2021/01/19 05:54:23;;;;;;;5.43;1.85;;;;;;;;;;4988393;28;20030;-61
2021/01/19 05:56:50;;;;;;;4.28;1.30;;;;;;;;;;4984350;28;20038;-60
2021/01/19 05:59:34;;;;;;;4.25;1.42;;;;;;;;;;4986659;28;20049;-61
2021/01/19 06:02:01;;;;;;;3.70;1.52;;;;;;;;;;4983877;28;20038;-61
2021/01/19 06:04:37;;;;;;;4.22;1.38;;;;;;;;;;4988205;28;20073;-60
2021/01/19 06:07:04;;;;;;;2.78;1.30;;;;;;;;;;4999216;28;20041;-62
2021/01/19 06:09:30;;;;;;;5.45;1.40;;;;;;;;;;5004025;28;20054;-61
2021/01/19 06:11:57;;;;;;;1.58;0.95;;;;;;;;;;4988271;28;20050;-61
2021/01/19 06:14:24;;;;;;;5.22;1.55;;;;;;;;;;4999748;28;20062;-61
2021/01/19 06:16:51;;;;;;;2.72;1.17;;;;;;;;;;4978643;28;20046;-61
2021/01/19 06:19:28;;;;;;;3.03;1.48;;;;;;;;;;4983739;28;20042;-61
2021/01/19 06:21:54;;;;;;;2.83;1.30;;;;;;;;;;4988525;28;20127;-60
2021/01/19 06:24:30;;;;;;;2.60;1.20;;;;;;;;;;5002648;28;20038;-61
2021/01/19 06:26:56;;;;;;;2.92;0.95;;;;;;;;;;5008006;28;20030;-61
2021/01/19 06:29:35;;;;;;;3.90;1.20;;;;;;;;;;4987685;28;20112;-60
2021/01/19 06:32:01;;;;;;;;;;;;;;;;;;4990126;28;20030;-61
2021/01/19 06:34:29;;;;;;;2.35;1.30;;;;;;;;;;4984958;28;20036;-60
2021/01/19 06:36:55;;;;;;;3.10;1.00;;;;;;;;;;4987525;28;20034;-61
2021/01/19 06:39:27;;;;;;;2.15;1.05;;;;;;;;;;4986083;28;20097;-62
2021/01/19 06:41:58;;;;;;;2.97;1.10;;;;;;;;;;5004943;28;20070;-60
2021/01/19 06:44:26;;;;;;;2.58;1.20;;;;;;;;;;4986829;28;20034;-61
2021/01/19 06:46:54;;;;;;;2.53;1.10;;;;;;;;;;4991394;28;20178;-61
2021/01/19 06:49:38;;;;;;;2.78;1.30;;;;;;;;;;4985910;28;20041;-61
2021/01/19 06:52:05;;;;;;;3.10;1.30;;;;;;;;;;4994677;28;20050;-61
2021/01/19 06:54:35;;;;;;;2.47;1.27;;;;;;;;;;4989930;28;20042;-61
2021/01/19 06:57:06;;;;;;;2.63;1.08;;;;;;;;;;4989878;28;20038;-60
2021/01/19 06:59:44;;;;;;;1.70;1.00;;;;;;;;;;4985544;28;20045;-61
2021/01/19 07:02:16;;;;;;;8.20;1.23;;;;;;;;;;5007442;28;20039;-61
2021/01/19 07:04:47;;;;;;;3.10;1.27;;;;;;;;;;4987156;28;20046;-61
2021/01/19 07:07:18;;;;;;;4.13;1.30;;;;;;;;;;4974854;28;20031;-61
2021/01/19 07:10:05;;;;;;;2.92;1.23;;;;;;;;;;4985678;28;20050;-61
2021/01/19 07:12:44;;;;;;;3.72;1.60;;;;;;;;;;4990207;28;20034;-61
2021/01/19 07:15:11;;;;;;;1.98;1.27;;;;;;;;;;4999580;28;20042;-61
2021/01/19 07:17:55;;;;;;;1.90;1.02;;;;;;;;;;4989717;28;20087;-61
2021/01/19 07:20:29;;;;;;;3.33;1.15;;;;;;;;;;4975828;28;20040;-61
2021/01/19 07:22:58;;;;;;;5.43;1.80;;;;;;;;;;4985505;28;20026;-61
2021/01/19 07:25:25;;;;;;;3.72;1.33;;;;;;;;;;4991835;28;20051;-61
2021/01/19 07:27:51;;;;;;;5.35;1.52;;;;;;;;;;4987439;28;20066;-61
2021/01/19 07:30:20;;;;;;;2.60;1.15;;;;;;;;;;4985285;28;20066;-61
2021/01/19 07:32:47;;;;;;;2.88;1.38;;;;;;;;;;4986018;28;20046;-61
2021/01/19 07:35:14;;;;;;;5.22;1.45;;;;;;;;;;4988619;28;20082;-61
2021/01/19 07:37:41;;;;;;;4.10;1.23;;;;;;;;;;5004799;28;20123;-61
2021/01/19 07:40:26;;;;;;;3.97;1.05;;;;;;;;;;4994322;28;20026;-61
2021/01/19 07:42:52;;;;;;;7.35;1.30;;;;;;;;;;4987453;28;20037;-60
2021/01/19 07:45:28;;;;;;;3.40;1.42;;;;;;;;;;4991827;28;20030;-61
2021/01/19 07:48:03;;;;;;;2.75;1.23;;;;;;;;;;4987912;28;20035;-61
2021/01/19 07:50:38;;;;;;;3.47;1.40;;;;;;;;;;4985928;28;20068;-61
2021/01/19 07:53:05;;;;;;;2.70;1.05;;;;;;;;;;4982799;28;20108;-61
2021/01/19 07:55:40;;;;;;;5.95;2.00;;;;;;;;;;4987406;28;20030;-60
2021/01/19 07:58:13;;;;;;;5.88;2.42;;;;;;;;;;4985714;28;20038;-61
2021/01/19 08:00:47;;;;;;;6.10;1.70;;;;;;;;;;4986845;28;20043;-61
2021/01/19 08:03:13;;;;;;;4.20;1.60;;;;;;;;;;4983173;28;20056;-61
2021/01/19 08:05:39;;;;;;;4.05;1.58;;;;;;;;;;4986898;28;20105;-60
2021/01/19 08:08:16;;;;;;;3.50;1.40;;;;;;;;;;4983930;28;20049;-61
2021/01/19 08:10:53;;;;;;;3.60;1.20;;;;;;;;;;4988813;28;20038;-61
2021/01/19 08:13:19;;;;;;;2.85;1.10;;;;;;;;;;4986355;28;20070;-61
2021/01/19 08:15:47;;;;;;;3.15;1.30;;;;;;;;;;5007241;28;20038;-61
2021/01/19 08:18:16;;;;;;;3.47;1.38;;;;;;;;;;4986789;28;20030;-61
2021/01/19 08:20:42;;;;;;;3.17;1.45;;;;;;;;;;4994407;28;20053;-62
2021/01/19 08:23:10;;;;;;;3.38;1.30;;;;;;;;;;5007239;28;20066;-61
2021/01/19 08:25:37;;;;;;;2.65;1.17;;;;;;;;;;4989579;28;20038;-60
2021/01/19 08:28:03;;;;;;;5.95;1.40;;;;;;;;;;4983820;28;20034;-60
2021/01/19 08:30:46;;;;;;;2.75;1.00;;;;;;;;;;4988700;28;20092;-61
2021/01/19 08:33:12;;;;;;;1.92;1.00;;;;;;;;;;4985151;28;20034;-60
2021/01/19 08:35:39;;;;;;;2.10;1.17;;;;;;;;;;4989400;28;20106;-61
2021/01/19 08:38:05;;;;;;;2.63;1.02;;;;;;;;;;4986107;28;20034;-61
2021/01/19 08:40:43;;;;;;;1.65;0.80;;;;;;;;;;4979553;28;20039;-61
2021/01/19 08:43:09;;;;;;;2.15;1.02;;;;;;;;;;5001213;28;20059;-61
2021/01/19 08:45:38;;;;;;;6.80;1.15;;;;;;;;;;4988347;28;20027;-61
2021/01/19 08:48:05;;;;;;;2.88;0.80;;;;;;;;;;4988912;28;20031;-61
2021/01/19 08:50:35;;;;;;;1.77;1.10;;;;;;;;;;4983700;28;20047;-61
2021/01/19 08:53:06;;;;;;;2.83;1.00;;;;;;;;;;4985832;28;20034;-61
2021/01/19 08:55:32;;;;;;;2.03;1.05;;;;;;;;;;5001152;28;20093;-61
2021/01/19 08:58:00;;;;;;;3.65;1.30;;;;;;;;;;5004867;28;20026;-61
2021/01/19 09:00:33;;;;;;;1.55;1.02;;;;;;;;;;5000844;28;20093;-61
2021/01/19 09:02:59;;;;;;;3.05;1.23;;;;;;;;;;4987881;28;20046;-61
2021/01/19 09:05:26;;;;;;;1.70;1.20;;;;;;;;;;4981169;28;20053;-61
2021/01/19 09:07:52;;;;;;;7.82;2.30;;;;;;;;;;5001732;28;20030;-61
2021/01/19 09:10:23;;;;;;;6.10;1.95;;;;;;;;;;4984657;28;20144;-61
2021/01/19 09:12:50;;;;;;;3.58;1.40;;;;;;;;;;5004932;28;20038;-61
2021/01/19 09:15:17;;;;;;;1.42;0.70;;;;;;;;;;5000057;28;20049;-61
2021/01/19 09:17:50;;;;;;;2.15;1.23;;;;;;;;;;4989528;28;20054;-61
2021/01/19 09:20:19;;;;;;;1.52;1.00;;;;;;;;;;4983841;28;20034;-61
2021/01/19 09:22:45;;;;;;;3.03;1.10;;;;;;;;;;5004986;28;20034;-61
2021/01/19 09:25:12;;;;;;;1.90;1.10;;;;;;;;;;5001280;28;20044;-61
2021/01/19 09:27:38;;;;;;;3.20;1.30;;;;;;;;;;4988826;28;20046;-61
2021/01/19 09:30:06;;;;;;;2.30;1.17;;;;;;;;;;4984645;28;20076;-61
2021/01/19 09:32:33;;;;;;;3.67;1.70;;;;;;;;;;5003396;28;20087;-61
2021/01/19 09:35:01;;;;;;;3.92;0.98;;;;;;;;;;5001002;28;20042;-61
2021/01/19 09:37:28;;;;;;;2.70;1.23;;;;;;;;;;4969027;28;20042;-61
2021/01/19 09:39:55;;;;;;;2.10;0.95;;;;;;;;;;4969468;28;20034;-61
2021/01/19 09:42:21;;;;;;;1.35;0.88;;;;;;;;;;4985086;28;20030;-61
2021/01/19 09:44:48;;;;;;;3.08;1.10;;;;;;;;;;4978231;28;20049;-61
2021/01/19 09:47:14;;;;;;;6.03;1.40;;;;;;;;;;5000225;28;20046;-61
2021/01/19 09:49:43;;;;;;;1.30;0.90;;;;;;;;;;4992498;28;20049;-62
2021/01/19 09:52:09;;;;;;;2.83;1.27;;;;;;;;;;5003380;28;20046;-61
2021/01/19 09:54:36;;;;;;;2.33;1.30;;;;;;;;;;5003821;28;20045;-61
2021/01/19 09:57:01;;;;;;;2.15;1.40;;;;;;;;;;4999119;28;20034;-61
2021/01/19 09:59:29;;;;;;;2.00;1.15;;;;;;;;;;5004320;28;20042;-61
2021/01/19 10:01:55;;;;;;;3.05;1.60;;;;;;;;;;4999893;28;20037;-61
2021/01/19 10:04:21;;;;;;;5.60;1.60;;;;;;;;;;5004671;28;20038;-61
2021/01/19 10:06:48;;;;;;;2.28;1.30;;;;;;;;;;4973158;28;20050;-61
2021/01/19 10:09:41;;;;;;;8.95;3.17;;;;;;;;;;4948200;28;20043;-61
2021/01/19 10:12:08;;;;;;;9.00;2.80;;;;;;;;;;4949289;28;20039;-61
2021/01/19 10:14:34;;;;;;;5.13;1.30;;;;;;;;;;4983566;28;20057;-61
2021/01/19 10:17:01;;;;;;;2.30;1.20;;;;;;;;;;4978905;28;20125;-61
2021/01/19 10:19:37;;;;;;;1.63;0.93;;;;;;;;;;4966488;28;20042;-61
2021/01/19 10:22:04;;;;;;;1.80;0.85;;;;;;;;;;4963237;28;20095;-61
2021/01/19 10:24:30;;;;;;;1.65;0.93;;;;;;;;;;4955645;28;20050;-61
2021/01/19 10:27:03;;;;;;;3.60;1.05;;;;;;;;;;4946863;28;20031;-61
2021/01/19 10:29:31;;;;;;;2.25;1.05;;;;;;;;;;4967005;28;20035;-61
2021/01/19 10:32:00;;;;;;;1.23;0.75;;;;;;;;;;4984306;28;20050;-61
2021/01/19 10:34:27;;;;;;;1.33;0.80;;;;;;;;;;4980049;28;20049;-60
2021/01/19 10:36:54;;;;;;;1.38;0.80;;;;;;;;;;4968258;28;20034;-61
2021/01/19 10:39:26;;;;;;;4.85;1.00;;;;;;;;;;4965845;28;20031;-61
2021/01/19 10:41:53;;;;;;;1.58;0.73;;;;;;;;;;4966843;28;20046;-61
2021/01/19 10:44:21;;;;;;;1.85;0.80;;;;;;;;;;4985408;28;20113;-61
2021/01/19 10:46:54;;;;;;;1.63;1.00;;;;;;;;;;4968603;28;20031;-61
2021/01/19 10:49:26;;;;;;;3.10;0.90;;;;;;;;;;4960388;28;20116;-61
2021/01/19 10:51:52;;;;;;;2.00;1.10;;;;;;;;;;4964144;28;20118;-61
2021/01/19 10:54:19;;;;;;;1.10;0.38;;;;;;;;;;4960583;28;20035;-61
2021/01/19 10:56:46;;;;;;;2.47;1.30;;;;;;;;;;4949525;28;20028;-61
2021/01/19 10:59:14;;;;;;;2.20;1.00;;;;;;;;;;4968509;28;20058;-61
2021/01/19 11:01:40;;;;;;;2.45;1.13;;;;;;;;;;4967294;28;20046;-61
2021/01/19 11:04:07;;;;;;;3.17;1.00;;;;;;;;;;4964517;28;20046;-61
2021/01/19 11:06:34;;;;;;;1.58;1.08;;;;;;;;;;5001582;28;20111;-61
2021/01/19 11:09:00;;;;;;;2.42;1.15;;;;;;;;;;4984479;28;20046;-61
2021/01/19 11:11:27;;;;;;;2.45;1.30;;;;;;;;;;4988870;28;20061;-61
2021/01/19 11:13:56;;;;;;;1.95;0.98;;;;;;;;;;4986643;28;20046;-61
2021/01/19 11:16:27;;;;;;;2.90;1.08;;;;;;;;;;4990063;28;20061;-61
2021/01/19 11:18:53;;;;;;;2.88;0.82;;;;;;;;;;4995203;28;20030;-61
2021/01/19 11:21:19;;;;;;;7.63;2.85;;;;;;;;;;4989297;28;20120;-61
2021/01/19 11:23:45;;;;;;;7.40;2.67;;;;;;;;;;5007586;28;20042;-61
2021/01/19 11:26:11;;;;;;;1.35;0.90;;;;;;;;;;5003884;28;20038;-61
2021/01/19 11:28:37;;;;;;;4.10;1.17;;;;;;;;;;4989553;28;20042;-61
2021/01/19 11:31:04;;;;;;;2.15;1.23;;;;;;;;;;5002122;28;20030;-61
2021/01/19 11:33:30;;;;;;;2.83;1.10;;;;;;;;;;4989763;28;20034;-61
2021/01/19 11:35:56;;;;;;;2.42;1.30;;;;;;;;;;4984588;28;20030;-61
2021/01/19 11:38:22;;;;;;;3.88;1.65;;;;;;;;;;4990151;28;20034;-61
2021/01/19 11:40:48;;;;;;;3.47;1.63;;;;;;;;;;4985648;28;20044;-61
2021/01/19 11:43:14;;;;;;;2.17;1.23;;;;;;;;;;4989703;28;20042;-61
2021/01/19 11:45:40;;;;;;;4.18;1.30;;;;;;;;;;4986797;28;20131;-61
2021/01/19 11:48:08;;;;;;;4.07;1.70;;;;;;;;;;4988398;28;20053;-61
2021/01/19 11:50:41;;;;;;;3.58;1.60;;;;;;;;;;5003508;28;20042;-61
2021/01/19 11:53:07;;;;;;;2.95;1.55;;;;;;;;;;4988752;28;20034;-61
2021/01/19 11:55:33;;;;;;;4.50;1.50;;;;;;;;;;4986356;28;20065;-61
2021/01/19 11:57:59;;;;;;;5.47;1.30;;;;;;;;;;4989011;28;20042;-61
2021/01/19 12:00:25;;;;;;;7.93;1.65;;;;;;;;;;4988522;28;20026;-60
2021/01/19 12:02:51;;;;;;;5.13;1.58;;;;;;;;;;4987939;28;20042;-61
2021/01/19 12:05:18;;;;;;;4.10;1.70;;;;;;;;;;4989555;28;20063;-60
2021/01/19 12:07:44;;;;;;;5.40;1.65;;;;;;;;;;5005123;28;20053;-61
2021/01/19 12:10:14;;;;;;;2.83;1.67;;;;;;;;;;4989591;28;20042;-60
2021/01/19 12:12:40;;;;;;;5.72;2.05;;;;;;;;;;4983134;28;20066;-61
2021/01/19 12:15:06;;;;;;;2.60;1.55;;;;;;;;;;5006042;28;20078;-60
2021/01/19 12:17:32;;;;;;;7.93;2.22;;;;;;;;;;4971159;28;20062;-61
2021/01/19 12:20:12;;;;;;;5.80;1.52;;;;;;;;;;4967276;28;20117;-61
2021/01/19 12:22:40;;;;;;;3.95;1.63;;;;;;;;;;4957242;28;20078;-61
2021/01/19 12:25:07;;;;;;;4.38;1.58;;;;;;;;;;4968312;28;20039;-61
2021/01/19 12:27:33;;;;;;;6.35;1.65;;;;;;;;;;4964891;28;20038;-61
2021/01/19 12:30:01;;;;;;;7.72;1.35;;;;;;;;;;4985405;28;20042;-61
2021/01/19 12:32:27;;;;;;;10.50;1.77;;;;;;;;;;4965381;28;20046;-61
2021/01/19 12:34:53;;;;;;;6.97;1.98;;;;;;;;;;4970252;28;20054;-61
2021/01/19 12:37:19;;;;;;;7.38;2.40;;;;;;;;;;4966135;28;20054;-61
2021/01/19 12:39:49;;;;;;;6.00;1.98;;;;;;;;;;4969784;28;20038;-61
2021/01/19 12:42:15;;;;;;;12.82;2.25;;;;;;;;;;4966049;28;20082;-61
2021/01/19 12:44:41;;;;;;;8.02;1.60;;;;;;;;;;4969621;28;20137;-61
2021/01/19 12:47:07;;;;;;;4.75;1.85;;;;;;;;;;4970108;28;20038;-62
2021/01/19 12:49:40;;;;;;;7.63;1.95;;;;;;;;;;4973088;28;20043;-61
2021/01/19 12:52:08;;;;;;;5.45;1.80;;;;;;;;;;4972037;28;20092;-61
2021/01/19 12:54:34;;;;;;;3.70;1.20;;;;;;;;;;4966565;28;20050;-61
2021/01/19 12:57:01;;;;;;;8.05;1.00;;;;;;;;;;4969041;28;20038;-61
2021/01/19 12:59:32;;;;;;;6.28;1.45;;;;;;;;;;4964111;28;20049;-61
2021/01/19 13:02:01;;;;;;;6.78;1.48;;;;;;;;;;4969572;28;20053;-62
2021/01/19 13:04:27;;;;;;;8.63;1.38;;;;;;;;;;4966278;28;20042;-61
2021/01/19 13:06:53;;;;;;;5.00;1.50;;;;;;;;;;5004716;28;20041;-62
2021/01/19 13:09:22;;;;;;;6.47;1.70;;;;;;;;;;4984165;28;20050;-62
2021/01/19 13:11:48;;;;;;;8.27;2.05;;;;;;;;;;4986813;28;20038;-61
2021/01/19 13:14:14;;;;;;;9.30;1.65;;;;;;;;;;5003259;28;20026;-61
2021/01/19 13:16:41;;;;;;;16.35;1.40;;;;;;;;;;4989322;28;20058;-61
2021/01/19 13:19:09;;;;;;;7.60;1.83;;;;;;;;;;5010081;28;20038;-61
2021/01/19 13:21:35;;;;;;;7.53;1.20;;;;;;;;;;5004905;28;20057;-62
2021/01/19 13:24:01;;;;;;;2.65;0.60;;;;;;;;;;4984535;28;20058;-62
2021/01/19 13:26:27;;;;;;;12.88;1.30;;;;;;;;;;4987621;28;20041;-61
2021/01/19 13:28:53;;;;;;;5.80;0.85;;;;;;;;;;5005382;28;20049;-62
2021/01/19 13:31:21;;;;;;;3.42;0.82;;;;;;;;;;4982615;28;20038;-61
2021/01/19 13:33:47;;;;;;;4.22;1.13;;;;;;;;;;4987563;28;20034;-61
2021/01/19 13:36:13;;;;;;;7.57;1.33;;;;;;;;;;4982948;28;20046;-62
2021/01/19 13:38:39;;;;;;;5.68;1.08;;;;;;;;;;5004331;28;20038;-62
2021/01/19 13:41:05;;;;;;;5.15;0.90;;;;;;;;;;4999521;28;20061;-62
2021/01/19 13:43:31;;;;;;;6.38;1.17;;;;;;;;;;5003249;28;20049;-62
2021/01/19 13:45:57;;;;;;;8.75;1.58;;;;;;;;;;5000578;28;20030;-61
2021/01/19 13:48:28;;;;;;;13.25;1.80;;;;;;;;;;4987337;28;20038;-62
2021/01/19 13:50:55;;;;;;;6.07;1.23;;;;;;;;;;4984350;28;20079;-61
2021/01/19 13:53:21;;;;;;;10.07;1.40;;;;;;;;;;4988037;28;20092;-62
2021/01/19 13:55:47;;;;;;;9.82;1.20;;;;;;;;;;5000804;28;20038;-62
2021/01/19 13:58:13;;;;;;;8.50;1.40;;;;;;;;;;4988879;28;20092;-62
2021/01/19 14:00:41;;;;;;;17.05;1.70;;;;;;;;;;4999582;28;20046;-62
2021/01/19 14:03:07;;;;;;;3.97;1.00;;;;;;;;;;4987532;28;20038;-62
2021/01/19 14:05:34;;;;;;;7.10;1.25;;;;;;;;;;5001061;28;20070;-62
2021/01/19 14:08:00;;;;;;;1.05;0.70;;;;;;;;;;4987588;28;20041;-62
2021/01/19 14:10:26;;;;;;;10.43;1.30;;;;;;;;;;4987489;28;20038;-62
2021/01/19 14:12:52;;;;;;;6.22;0.95;;;;;;;;;;4983289;28;20041;-62
2021/01/19 14:15:18;;;;;;;4.07;1.05;;;;;;;;;;4979424;28;20093;-62
2021/01/19 14:17:44;;;;;;;11.18;1.08;;;;;;;;;;4983469;28;20046;-62
2021/01/19 14:20:12;;;;;;;3.50;0.63;;;;;;;;;;5005033;28;20073;-65
2021/01/19 14:22:38;;;;;;;5.00;0.70;;;;;;;;;;4989183;28;20076;-62
2021/01/19 14:25:05;;;;;;;1.58;0.77;;;;;;;;;;4986199;28;20034;-61
2021/01/19 14:27:31;;;;;;;6.78;1.05;;;;;;;;;;4984569;28;20094;-61
2021/01/19 14:30:04;;;;;;;5.25;0.90;;;;;;;;;;4986886;28;20042;-62
2021/01/19 14:32:30;;;;;;;4.88;0.60;;;;;;;;;;4997948;28;20038;-62
2021/01/19 14:34:57;;;;;;;5.65;0.65;;;;;;;;;;4987102;28;20038;-61
2021/01/19 14:37:23;;;;;;;3.97;1.33;;;;;;;;;;4982622;28;20061;-62
2021/01/19 14:39:56;;;;;;;4.22;0.80;;;;;;;;;;4986705;28;20035;-62
2021/01/19 14:42:22;;;;;;;1.95;0.60;;;;;;;;;;5001347;28;20042;-61
2021/01/19 14:44:52;;;;;;;3.90;0.68;;;;;;;;;;4991600;28;20108;-62
2021/01/19 14:47:18;;;;;;;6.70;1.17;;;;;;;;;;5005754;28;20038;-62
2021/01/19 14:49:46;;;;;;;4.22;1.50;;;;;;;;;;4989055;28;20046;-62